Westbrook, Connecticut
Current Conditions -  °F | °C
As of 9:15 AM on Wednesday 26 Nov 2014 (Local Time) from KSNC Reporting Station
Moderate Rain Moderate Rain  
Wind Chill: 30°   Ceiling: 1700
Heat Index: 36°   Visibility: 2.5mi
Dew Point: 34°   Wind: 7mph
Humidity: 93%   Direction: 20°NNE
Pressure: 30.12"   Gusts: NA
Location:  41.29°N, 72.45°W
Report Text: KSNC 261415Z AUTO 02006KT 2 1/2SM RA SCT001 BKN017 OVC023 02/01 A3012 RMK AO2 P0006
Loading
Personal Weather Stations






























Interactive Weather Map New forecast layout! Learn more

10-Day Weather Forecast

Advertisements
Track Severe Weather on mobile